createdAt,value
2022-12-28T00:00:12.585Z,36.83
2022-12-28T00:02:39.008Z,36.89
2022-12-28T00:05:05.279Z,36.90
2022-12-28T00:07:31.646Z,36.96
2022-12-28T00:09:58.026Z,36.96
2022-12-28T00:12:24.368Z,36.93
2022-12-28T00:14:50.797Z,36.88
2022-12-28T00:17:17.198Z,36.88
2022-12-28T00:19:43.540Z,36.94
2022-12-28T00:22:09.888Z,36.91
2022-12-28T00:24:36.272Z,36.95
2022-12-28T00:27:02.619Z,36.93
2022-12-28T00:29:29.097Z,36.92
2022-12-28T00:31:55.494Z,37.00
2022-12-28T00:34:21.859Z,36.99
2022-12-28T00:37:09.901Z,37.12
2022-12-28T00:39:14.624Z,37.10
2022-12-28T00:41:40.958Z,37.04
2022-12-28T00:44:07.383Z,37.08
2022-12-28T00:46:33.754Z,37.18
2022-12-28T00:49:00.138Z,37.13
2022-12-28T00:51:26.479Z,37.19
2022-12-28T00:53:52.882Z,37.17
2022-12-28T00:56:19.232Z,37.11
2022-12-28T00:58:45.651Z,37.10
2022-12-28T01:01:12.063Z,37.10
2022-12-28T01:03:38.390Z,37.05
2022-12-28T01:06:04.737Z,37.17
2022-12-28T01:08:31.129Z,37.18
2022-12-28T01:10:57.471Z,37.24
2022-12-28T01:13:23.860Z,37.21
2022-12-28T01:15:50.203Z,37.17
2022-12-28T01:18:16.595Z,37.21
2022-12-28T01:20:42.971Z,37.23
2022-12-28T01:23:09.370Z,37.24
2022-12-28T01:25:35.717Z,37.26
2022-12-28T01:28:02.107Z,37.23
2022-12-28T01:30:28.482Z,37.26
2022-12-28T01:32:54.862Z,37.25
2022-12-28T01:35:21.266Z,37.29
2022-12-28T01:37:47.659Z,37.26
2022-12-28T01:40:14.040Z,37.31
2022-12-28T01:42:40.435Z,37.27
2022-12-28T01:45:06.773Z,37.29
2022-12-28T01:47:33.161Z,37.37
2022-12-28T01:50:00.475Z,37.37
2022-12-28T01:52:25.913Z,37.37
2022-12-28T01:54:52.264Z,37.32
2022-12-28T01:57:18.649Z,37.40
2022-12-28T01:59:45.013Z,37.38
2022-12-28T02:02:11.495Z,37.37
2022-12-28T02:04:37.747Z,37.32
2022-12-28T02:07:04.142Z,37.33
2022-12-28T02:09:30.567Z,37.30
2022-12-28T02:11:56.909Z,37.28
2022-12-28T02:14:23.255Z,37.36
2022-12-28T02:16:49.666Z,37.41
2022-12-28T02:19:16.022Z,37.46
2022-12-28T02:21:42.443Z,37.47
2022-12-28T02:24:08.799Z,37.49
2022-12-28T02:26:35.213Z,37.45
2022-12-28T02:29:01.551Z,37.48
2022-12-28T02:31:27.987Z,37.46
2022-12-28T02:33:54.313Z,37.53
2022-12-28T02:36:20.699Z,37.54
2022-12-28T02:38:47.077Z,37.51
2022-12-28T02:41:13.470Z,37.52
2022-12-28T02:43:39.847Z,37.58
2022-12-28T02:46:06.271Z,37.59
2022-12-28T02:48:32.614Z,37.59
2022-12-28T02:50:59.001Z,37.58
2022-12-28T02:53:25.371Z,37.61
2022-12-28T02:55:51.767Z,37.59
2022-12-28T02:58:18.144Z,37.56
2022-12-28T03:00:44.523Z,37.49
2022-12-28T03:03:10.958Z,37.49
2022-12-28T03:05:37.289Z,37.56
2022-12-28T03:08:03.663Z,37.64
2022-12-28T03:10:30.067Z,37.58
2022-12-28T03:12:56.459Z,37.38
2022-12-28T03:15:22.803Z,37.29
2022-12-28T03:17:49.190Z,37.19
2022-12-28T03:20:15.540Z,37.20
2022-12-28T03:22:41.953Z,37.20
2022-12-28T03:25:08.321Z,37.22
2022-12-28T03:27:34.767Z,37.04
2022-12-28T03:30:01.130Z,37.03
2022-12-28T03:32:27.507Z,36.98
2022-12-28T03:34:53.857Z,37.08
2022-12-28T03:37:20.235Z,36.97
2022-12-28T03:39:46.603Z,36.90
2022-12-28T03:42:13.002Z,36.79
2022-12-28T03:44:39.382Z,36.74
2022-12-28T03:47:05.776Z,36.72
2022-12-28T03:49:32.143Z,36.65
2022-12-28T03:51:58.540Z,36.61
2022-12-28T03:54:24.895Z,36.64
2022-12-28T03:56:51.291Z,36.63
2022-12-28T03:59:17.666Z,36.55
2022-12-28T04:01:44.117Z,36.49
2022-12-28T04:04:10.434Z,36.62
2022-12-28T04:06:36.824Z,36.58
2022-12-28T04:09:03.188Z,36.32
2022-12-28T04:11:29.576Z,36.24
2022-12-28T04:13:55.973Z,36.20
2022-12-28T04:16:22.488Z,36.13
2022-12-28T04:18:48.782Z,36.21
2022-12-28T04:21:15.733Z,36.18
2022-12-28T04:23:41.522Z,36.09
2022-12-28T04:26:07.918Z,36.02
2022-12-28T04:28:34.293Z,35.96
2022-12-28T04:31:00.734Z,35.89
2022-12-28T04:33:27.067Z,35.87
2022-12-28T04:35:53.459Z,35.81
2022-12-28T04:38:19.889Z,35.69
2022-12-28T04:40:46.278Z,35.70
2022-12-28T04:43:12.615Z,35.64
2022-12-28T04:45:39.142Z,35.61
2022-12-28T04:48:05.492Z,35.52
2022-12-28T04:50:31.965Z,35.57
2022-12-28T04:52:58.310Z,35.70
2022-12-28T04:55:32.785Z,35.68
2022-12-28T04:57:51.065Z,35.71
2022-12-28T05:00:17.453Z,35.71
2022-12-28T05:02:46.324Z,35.60
2022-12-28T05:05:10.213Z,35.48
2022-12-28T05:07:36.553Z,35.45
2022-12-28T05:10:02.985Z,35.44
2022-12-28T05:12:30.297Z,35.43
2022-12-28T05:14:56.981Z,35.39
2022-12-28T05:17:22.068Z,35.34
2022-12-28T05:19:48.451Z,35.33
2022-12-28T05:22:14.824Z,35.27
2022-12-28T05:24:41.217Z,35.27
2022-12-28T05:27:07.588Z,35.22
2022-12-28T05:29:33.969Z,35.20
2022-12-28T05:32:00.316Z,35.25
2022-12-28T05:34:26.705Z,35.09
2022-12-28T05:36:53.085Z,35.10
2022-12-28T05:39:19.465Z,35.08
2022-12-28T05:41:45.837Z,35.05
2022-12-28T05:44:12.228Z,34.99
2022-12-28T05:46:38.595Z,35.04
2022-12-28T05:49:04.988Z,35.03
2022-12-28T05:51:31.328Z,34.92
2022-12-28T05:53:57.754Z,34.92
2022-12-28T05:56:24.093Z,35.01
2022-12-28T05:58:50.492Z,35.08
2022-12-28T06:01:16.871Z,35.05
2022-12-28T06:03:43.258Z,35.21
2022-12-28T06:06:09.611Z,35.10
2022-12-28T06:08:35.988Z,35.08
2022-12-28T06:11:02.334Z,35.06
2022-12-28T06:13:28.733Z,35.08
2022-12-28T06:15:55.067Z,35.01
2022-12-28T06:18:21.499Z,34.88
2022-12-28T06:20:51.141Z,34.77
2022-12-28T06:23:14.270Z,34.84
2022-12-28T06:25:40.615Z,34.91
2022-12-28T06:28:07.003Z,35.13
2022-12-28T06:30:33.347Z,35.16
2022-12-28T06:32:59.766Z,35.11
2022-12-28T06:35:26.102Z,35.24
2022-12-28T06:37:52.574Z,35.26
2022-12-28T06:40:24.628Z,35.32
2022-12-28T06:42:45.323Z,35.29
2022-12-28T06:45:11.668Z,35.40
2022-12-28T06:47:38.061Z,35.46
2022-12-28T06:50:04.398Z,35.28
2022-12-28T06:52:30.782Z,35.17
2022-12-28T06:54:57.139Z,35.38
2022-12-28T06:57:23.525Z,35.48
2022-12-28T06:59:49.867Z,35.35
2022-12-28T07:02:16.364Z,35.23
2022-12-28T07:04:42.611Z,35.11
2022-12-28T07:07:09.017Z,34.80
2022-12-28T07:09:35.362Z,34.96
2022-12-28T07:12:01.766Z,34.95
2022-12-28T07:14:28.096Z,35.03
2022-12-28T07:16:55.439Z,35.27
2022-12-28T07:19:20.827Z,35.11
2022-12-28T07:21:47.227Z,34.99
2022-12-28T07:24:13.578Z,34.98
2022-12-28T07:26:39.970Z,34.96
2022-12-28T07:29:06.343Z,33.83
2022-12-28T07:31:35.788Z,34.40
2022-12-28T07:33:59.095Z,35.03
2022-12-28T07:36:25.503Z,34.93
2022-12-28T07:38:51.829Z,34.89
2022-12-28T07:41:19.204Z,34.93
2022-12-28T07:43:44.613Z,34.90
2022-12-28T07:46:11.078Z,34.73
2022-12-28T07:48:37.352Z,34.40
2022-12-28T07:51:03.767Z,34.67
2022-12-28T07:53:30.106Z,33.39
2022-12-28T07:55:56.520Z,34.07
2022-12-28T07:58:22.861Z,34.38
2022-12-28T08:00:49.308Z,34.61
2022-12-28T08:03:15.676Z,34.79
2022-12-28T08:05:42.057Z,34.91
2022-12-28T08:08:08.398Z,34.80
2022-12-28T08:10:34.787Z,34.21
2022-12-28T08:13:01.167Z,32.89
2022-12-28T08:15:27.632Z,32.65
2022-12-28T08:17:53.986Z,32.26
2022-12-28T08:20:20.391Z,32.13
2022-12-28T08:22:46.742Z,33.81
2022-12-28T08:25:13.155Z,34.85
2022-12-28T08:27:39.499Z,35.13
2022-12-28T08:30:05.919Z,35.36
2022-12-28T08:32:32.254Z,35.25
2022-12-28T08:34:58.640Z,35.21
2022-12-28T08:37:25.024Z,35.24
2022-12-28T08:39:51.397Z,35.18
2022-12-28T08:42:17.779Z,35.24
2022-12-28T08:44:44.164Z,35.33
2022-12-28T08:47:10.569Z,35.13
2022-12-28T08:49:36.926Z,35.03
2022-12-28T08:52:03.300Z,35.01
2022-12-28T08:54:29.713Z,35.01
2022-12-28T08:56:56.088Z,34.90
2022-12-28T08:59:22.524Z,34.78
2022-12-28T09:01:48.957Z,34.60
2022-12-28T09:04:15.294Z,34.47
2022-12-28T09:06:41.704Z,34.47
2022-12-28T09:09:09.149Z,34.45
2022-12-28T09:11:35.496Z,34.42
2022-12-28T09:14:01.901Z,34.39
2022-12-28T09:16:28.290Z,34.51
2022-12-28T09:18:54.632Z,34.74
2022-12-28T09:21:20.995Z,34.81
2022-12-28T09:23:47.367Z,34.80
2022-12-28T09:26:13.749Z,34.76
2022-12-28T09:28:40.133Z,34.76
2022-12-28T09:31:06.529Z,34.79
2022-12-28T09:33:32.888Z,34.97
2022-12-28T09:35:59.273Z,35.07
2022-12-28T09:38:25.663Z,34.98
2022-12-28T09:40:52.033Z,34.95
2022-12-28T09:43:18.421Z,34.86
2022-12-28T09:45:44.775Z,35.01
2022-12-28T09:48:11.176Z,34.93
2022-12-28T09:50:37.517Z,34.89
2022-12-28T09:53:03.944Z,34.89
2022-12-28T09:55:30.283Z,34.91
2022-12-28T09:57:56.690Z,34.75
2022-12-28T10:00:23.044Z,34.63
2022-12-28T10:02:49.605Z,34.79
2022-12-28T10:05:15.790Z,34.88
2022-12-28T10:07:42.186Z,34.88
2022-12-28T10:10:08.537Z,34.71
2022-12-28T10:12:34.939Z,34.88
2022-12-28T10:15:01.314Z,34.91
2022-12-28T10:17:27.705Z,34.80
2022-12-28T10:19:54.088Z,34.61
2022-12-28T10:22:20.474Z,34.68
2022-12-28T10:24:46.840Z,34.82
2022-12-28T10:27:13.288Z,34.93
2022-12-28T10:29:39.636Z,34.96
2022-12-28T10:32:06.024Z,34.90
2022-12-28T10:34:33.945Z,34.90
2022-12-28T10:36:58.779Z,34.80
2022-12-28T10:39:25.128Z,34.90
2022-12-28T10:41:51.538Z,34.83
2022-12-28T10:46:44.364Z,34.78
2022-12-28T10:49:15.379Z,34.69
2022-12-28T10:51:37.968Z,34.60
2022-12-28T10:54:03.375Z,34.73
2022-12-28T10:56:31.349Z,34.78
2022-12-28T10:58:56.385Z,34.65
2022-12-28T11:01:22.848Z,34.54
2022-12-28T11:03:49.151Z,34.48
2022-12-28T11:06:15.546Z,34.86
2022-12-28T11:08:41.913Z,34.80
2022-12-28T11:11:08.330Z,34.62
2022-12-28T11:13:34.678Z,34.98
2022-12-28T11:16:01.157Z,34.91
2022-12-28T11:18:28.377Z,34.04
2022-12-28T11:20:53.843Z,32.81
2022-12-28T11:23:20.210Z,32.35
2022-12-28T11:25:46.600Z,33.66
2022-12-28T11:28:12.943Z,34.23
2022-12-28T11:30:39.330Z,34.07
2022-12-28T11:33:05.667Z,34.18
2022-12-28T11:35:32.079Z,34.16
2022-12-28T11:37:58.440Z,34.02
2022-12-28T11:40:25.805Z,34.19
2022-12-28T11:42:51.192Z,33.64
2022-12-28T11:45:17.586Z,34.29
2022-12-28T11:47:43.935Z,34.05
2022-12-28T11:50:10.341Z,34.44
2022-12-28T11:52:36.710Z,34.53
2022-12-28T11:55:03.151Z,34.63
2022-12-28T11:57:29.485Z,34.48
2022-12-28T11:59:55.873Z,34.44
2022-12-28T12:02:22.270Z,34.82
2022-12-28T12:04:48.639Z,34.84
2022-12-28T12:07:14.973Z,34.88
2022-12-28T12:09:41.441Z,34.96
2022-12-28T12:12:09.231Z,34.75
2022-12-28T12:14:34.181Z,34.63
2022-12-28T12:17:00.639Z,34.58
2022-12-28T12:19:26.935Z,34.50
2022-12-28T12:21:53.303Z,34.39
2022-12-28T12:24:19.691Z,34.21
2022-12-28T12:26:46.027Z,34.16
2022-12-28T12:29:12.443Z,34.14
2022-12-28T12:31:38.786Z,33.98
2022-12-28T12:34:05.206Z,33.79
2022-12-28T12:36:31.548Z,32.62
2022-12-28T12:38:57.967Z,32.49
2022-12-28T12:41:24.336Z,32.25
2022-12-28T12:43:50.731Z,31.62
2022-12-28T12:46:17.112Z,31.42
2022-12-28T12:48:43.499Z,31.31
2022-12-28T12:51:09.898Z,31.33
2022-12-28T12:53:36.276Z,31.21
2022-12-28T12:56:02.643Z,31.20
2022-12-28T12:58:29.024Z,31.16
2022-12-28T13:00:55.388Z,31.18
2022-12-28T13:03:21.814Z,32.36
2022-12-28T13:05:48.136Z,33.90
2022-12-28T13:08:14.524Z,34.07
2022-12-28T13:10:40.942Z,34.09
2022-12-28T13:13:07.268Z,34.16
2022-12-28T13:15:33.623Z,34.04
2022-12-28T13:18:18.232Z,32.49
2022-12-28T13:20:26.398Z,31.91
2022-12-28T13:22:52.804Z,31.67
2022-12-28T13:25:20.144Z,31.46
2022-12-28T13:27:45.571Z,31.38
2022-12-28T13:30:11.921Z,34.46
2022-12-28T13:32:38.837Z,34.45
2022-12-28T13:35:04.659Z,34.30
2022-12-28T13:37:31.006Z,34.08
2022-12-28T13:39:57.395Z,32.63
2022-12-28T13:42:23.766Z,31.91
2022-12-28T13:44:50.158Z,31.60
2022-12-28T13:47:16.512Z,31.47
2022-12-28T13:49:42.910Z,31.32
2022-12-28T13:52:09.276Z,31.46
2022-12-28T13:54:35.682Z,31.27
2022-12-28T13:57:20.926Z,31.27
2022-12-28T13:59:28.418Z,31.32
2022-12-28T14:01:54.844Z,31.34
2022-12-28T14:06:47.666Z,31.25
2022-12-28T14:09:14.023Z,33.60
2022-12-28T14:11:40.362Z,34.27
2022-12-28T14:14:06.749Z,34.38
2022-12-28T14:16:33.135Z,34.53
2022-12-28T14:18:59.477Z,34.58
2022-12-28T14:21:25.856Z,34.50
2022-12-28T14:23:52.242Z,34.50
2022-12-28T14:26:18.626Z,34.38
2022-12-28T14:28:45.007Z,34.38
2022-12-28T14:31:11.401Z,34.26
2022-12-28T14:33:37.769Z,34.34
2022-12-28T14:36:04.146Z,34.31
2022-12-28T14:38:30.533Z,34.34
2022-12-28T14:40:57.978Z,34.22
2022-12-28T14:43:23.296Z,34.24
2022-12-28T14:48:17.573Z,34.67
2022-12-28T14:50:42.466Z,34.75
2022-12-28T14:53:08.853Z,34.58
2022-12-28T14:55:35.196Z,34.43
2022-12-28T14:58:01.614Z,34.41
2022-12-28T15:00:25.294Z,34.42
2022-12-28T15:00:27.977Z,34.28
2022-12-28T15:02:54.418Z,34.14
2022-12-28T15:05:20.703Z,34.29
2022-12-28T15:07:47.126Z,34.21
2022-12-28T15:10:13.506Z,34.12
2022-12-28T15:12:39.862Z,34.03
2022-12-28T15:15:06.201Z,34.00
2022-12-28T15:17:33.713Z,34.01
2022-12-28T15:19:58.939Z,34.44
2022-12-28T15:22:25.359Z,34.75
2022-12-28T15:24:51.714Z,34.91
2022-12-28T15:27:18.110Z,34.86
2022-12-28T15:32:10.836Z,34.70
2022-12-28T15:34:37.186Z,34.58
2022-12-28T15:37:03.569Z,34.64
2022-12-28T15:39:29.910Z,34.57
2022-12-28T15:41:56.311Z,34.47
2022-12-28T15:44:22.669Z,34.43
2022-12-28T15:46:49.134Z,34.41
2022-12-28T15:49:16.396Z,34.25
2022-12-28T15:51:41.821Z,34.29
2022-12-28T15:54:08.164Z,34.27
2022-12-28T15:56:34.562Z,34.25
2022-12-28T15:59:00.921Z,34.07
2022-12-28T16:01:27.389Z,34.21
2022-12-28T16:03:53.657Z,34.14
2022-12-28T16:06:20.047Z,34.05
2022-12-28T16:08:46.447Z,33.93
2022-12-28T16:11:12.824Z,34.05
2022-12-28T16:13:39.216Z,34.22
2022-12-28T16:16:05.693Z,34.47
2022-12-28T16:18:31.996Z,34.58
2022-12-28T16:20:58.379Z,34.37
2022-12-28T16:23:24.728Z,34.21
2022-12-28T16:25:51.149Z,34.13
2022-12-28T16:28:18.457Z,34.17
2022-12-28T16:30:43.871Z,34.04
2022-12-28T16:33:10.305Z,34.04
2022-12-28T16:35:36.651Z,34.00
2022-12-28T16:38:02.996Z,33.94
2022-12-28T16:40:29.422Z,33.96
2022-12-28T16:42:55.803Z,33.92
2022-12-28T16:45:22.229Z,33.87
2022-12-28T16:47:48.568Z,33.83
2022-12-28T16:50:14.960Z,33.82
2022-12-28T16:52:41.345Z,33.81
2022-12-28T16:55:07.732Z,33.75
2022-12-28T16:57:34.074Z,33.77
2022-12-28T17:00:00.528Z,34.23
2022-12-28T17:02:26.945Z,34.70
2022-12-28T17:04:53.198Z,34.93
2022-12-28T17:07:19.556Z,34.83
2022-12-28T17:09:50.108Z,34.78
2022-12-28T17:12:12.318Z,34.67
2022-12-28T17:14:38.711Z,34.46
2022-12-28T17:17:05.117Z,34.40
2022-12-28T17:19:31.469Z,34.22
2022-12-28T17:21:57.807Z,34.24
2022-12-28T17:24:24.214Z,34.21
2022-12-28T17:26:50.550Z,34.02
2022-12-28T17:29:17.071Z,33.92
2022-12-28T17:31:43.370Z,33.88
2022-12-28T17:34:09.751Z,33.80
2022-12-28T17:36:36.096Z,33.77
2022-12-28T17:39:04.891Z,33.79
2022-12-28T17:41:31.264Z,33.76
2022-12-28T17:43:57.659Z,33.76
2022-12-28T17:46:24.012Z,33.70
2022-12-28T17:48:50.387Z,33.72
2022-12-28T17:51:16.727Z,33.64
2022-12-28T17:53:43.183Z,33.63
2022-12-28T17:56:09.561Z,33.60
2022-12-28T17:58:35.940Z,33.58
2022-12-28T18:01:02.415Z,33.60
2022-12-28T18:03:33.714Z,33.61
2022-12-28T18:05:55.108Z,33.66
2022-12-28T18:08:21.499Z,33.58
2022-12-28T18:10:47.842Z,33.62
2022-12-28T18:13:14.263Z,33.72
2022-12-28T18:15:40.607Z,33.87
2022-12-28T18:18:07.039Z,34.28
2022-12-28T18:20:33.361Z,34.58
2022-12-28T18:22:59.787Z,34.66
2022-12-28T18:25:26.126Z,34.39
2022-12-28T18:27:52.522Z,34.25
2022-12-28T18:30:18.861Z,34.22
2022-12-28T18:32:45.254Z,34.15
2022-12-28T18:35:11.628Z,34.17
2022-12-28T18:37:38.014Z,34.14
2022-12-28T18:40:04.423Z,34.08
2022-12-28T18:42:30.811Z,34.07
2022-12-28T18:44:57.151Z,34.13
2022-12-28T18:47:23.570Z,34.11
2022-12-28T18:49:49.942Z,34.00
2022-12-28T18:52:16.347Z,34.12
2022-12-28T18:54:42.665Z,34.13
2022-12-28T18:57:09.093Z,34.12
2022-12-28T18:59:35.433Z,34.20
2022-12-28T19:02:06.793Z,34.16
2022-12-28T19:04:28.380Z,34.13
2022-12-28T19:06:54.676Z,34.18
2022-12-28T19:09:21.013Z,34.23
2022-12-28T19:11:47.410Z,34.40
2022-12-28T19:14:13.782Z,34.52
2022-12-28T19:16:40.372Z,34.60
2022-12-28T19:19:06.553Z,34.75
2022-12-28T19:21:32.961Z,34.71
2022-12-28T19:23:59.332Z,34.68
2022-12-28T19:26:25.724Z,34.82
2022-12-28T19:28:52.089Z,34.85
2022-12-28T19:31:18.574Z,34.91
2022-12-28T19:33:44.917Z,35.04
2022-12-28T19:36:11.288Z,35.01
2022-12-28T19:38:37.655Z,35.11
2022-12-28T19:41:04.050Z,35.20
2022-12-28T19:43:30.404Z,35.17
2022-12-28T19:45:56.814Z,35.13
2022-12-28T19:48:23.173Z,35.17
2022-12-28T19:50:49.615Z,35.29
2022-12-28T19:53:16.035Z,35.26
2022-12-28T19:55:42.431Z,35.29
2022-12-28T19:58:08.774Z,35.29
2022-12-28T20:00:35.171Z,35.38
2022-12-28T20:03:01.618Z,35.47
2022-12-28T20:05:27.899Z,35.41
2022-12-28T20:07:54.279Z,35.41
2022-12-28T20:10:20.694Z,35.43
2022-12-28T20:12:47.038Z,35.47
2022-12-28T20:15:14.596Z,35.49
2022-12-28T20:17:40.940Z,35.56
2022-12-28T20:20:07.341Z,35.60
2022-12-28T20:22:33.684Z,35.66
2022-12-28T20:25:00.078Z,35.57
2022-12-28T20:27:26.419Z,35.63
2022-12-28T20:29:52.791Z,35.67
2022-12-28T20:32:19.166Z,35.59
2022-12-28T20:34:47.328Z,35.59
2022-12-28T20:37:13.673Z,35.53
2022-12-28T20:39:40.109Z,35.74
2022-12-28T20:42:06.459Z,35.71
2022-12-28T20:44:32.831Z,35.73
2022-12-28T20:46:59.219Z,35.79
2022-12-28T20:49:25.592Z,35.83
2022-12-28T20:51:51.930Z,35.95
2022-12-28T20:54:18.326Z,36.02
2022-12-28T20:56:49.108Z,36.00
2022-12-28T20:59:11.095Z,36.12
2022-12-28T21:01:37.558Z,36.01
2022-12-28T21:04:04.058Z,36.02
2022-12-28T21:06:30.323Z,36.08
2022-12-28T21:08:56.736Z,36.23
2022-12-28T21:11:23.070Z,36.12
2022-12-28T21:13:49.497Z,36.10
2022-12-28T21:16:15.875Z,36.14
2022-12-28T21:18:42.231Z,36.29
2022-12-28T21:21:08.613Z,36.17
2022-12-28T21:23:34.993Z,36.15
2022-12-28T21:26:01.346Z,36.19
2022-12-28T21:28:27.759Z,36.25
2022-12-28T21:30:54.095Z,36.21
2022-12-28T21:33:20.503Z,36.23
2022-12-28T21:35:46.854Z,36.31
2022-12-28T21:38:13.267Z,36.33
2022-12-28T21:40:39.623Z,36.26
2022-12-28T21:43:06.032Z,36.31
2022-12-28T21:45:32.407Z,36.32
2022-12-28T21:47:58.777Z,36.42
2022-12-28T21:50:25.105Z,36.45
2022-12-28T21:52:51.621Z,36.39
2022-12-28T21:55:18.000Z,36.40
2022-12-28T21:57:44.390Z,36.61
2022-12-28T22:00:10.737Z,36.58
2022-12-28T22:02:37.455Z,36.46
2022-12-28T22:05:03.712Z,36.52
2022-12-28T22:07:29.913Z,36.56
2022-12-28T22:09:56.288Z,36.50
2022-12-28T22:12:22.709Z,36.60
2022-12-28T22:14:49.055Z,36.66
2022-12-28T22:17:15.493Z,36.62
2022-12-28T22:19:41.818Z,36.79
2022-12-28T22:22:08.207Z,36.85
2022-12-28T22:24:36.752Z,36.74
2022-12-28T22:27:03.132Z,36.64
2022-12-28T22:29:29.468Z,36.68
2022-12-28T22:31:55.954Z,36.83
2022-12-28T22:34:22.242Z,36.79
2022-12-28T22:36:48.661Z,36.71
2022-12-28T22:39:15.065Z,36.59
2022-12-28T22:41:41.455Z,36.96
2022-12-28T22:44:07.805Z,37.03
2022-12-28T22:46:34.266Z,36.89
2022-12-28T22:49:00.560Z,36.92
2022-12-28T22:51:26.979Z,36.93
2022-12-28T22:53:53.332Z,36.94
2022-12-28T22:56:21.298Z,36.90
2022-12-28T22:58:46.054Z,36.59
2022-12-28T23:01:12.558Z,37.07
2022-12-28T23:03:38.821Z,36.14
2022-12-28T23:06:05.165Z,36.00
2022-12-28T23:08:32.771Z,36.04
2022-12-28T23:10:57.936Z,37.08
2022-12-28T23:13:24.276Z,36.91
2022-12-28T23:15:50.667Z,35.37
2022-12-28T23:18:18.046Z,34.71
2022-12-28T23:20:43.402Z,34.42
2022-12-28T23:23:09.776Z,35.80
2022-12-28T23:25:36.161Z,37.12
2022-12-28T23:28:02.500Z,37.32
2022-12-28T23:30:28.929Z,37.34
2022-12-28T23:32:55.255Z,37.38
2022-12-28T23:35:21.659Z,37.29
2022-12-28T23:37:48.015Z,37.25
2022-12-28T23:40:14.421Z,37.37
2022-12-28T23:42:40.775Z,37.35
2022-12-28T23:45:07.158Z,37.34
2022-12-28T23:47:33.517Z,37.43
2022-12-28T23:49:59.909Z,37.41
2022-12-28T23:52:26.319Z,37.43
2022-12-28T23:54:52.671Z,37.50
2022-12-28T23:57:19.006Z,37.43
2022-12-28T23:59:45.425Z,37.42
